Fulton County Airport Brown Field Atlanta US
ICAO: KFTY
IATA: FTY
Category: Medium
Scheduled Services: No

Elevation: 841 ft
TransAlt. 18000 ft.

Airport Communications:
ATLANTA APP/DEP:121
ATIS:120.175
CTAF:118.45
GND:121.7
MACON RDO:122.2
COUNTY TWR:118.45
UNICOM:122.95

KFTY Zoom In..

Runways:

(A) RW 08 length 5797 ft width 100 ft
ILS 109.10 / hdg 85

(B) RW 09 length 2801 ft width 60 ft
---- / hdg 85

(C) RW 14 length 4158 ft width 100 ft
---- / hdg 144

(D) RW 26 length 5797 ft width 100 ft
---- / hdg 265

(E) RW 27 length 2801 ft width 60 ft
---- / hdg 265

(F) RW 32 length 4158 ft width 100 ft
---- / hdg 324

Location; KFTY
Day. 15 / Time. 22.31 Zulu
* Altimeter: 30.01
* Temperature: 28° c. 82.4°f.
* Wind from: 350° Speed 03 kn.
Dewpoint: 24° c.
Visibility: 3 Statute Miles.
Clouds: Scattered 3900 ft.
Clouds: Broken 5000 ft.
Clouds: Overcast 9500 ft.
Conditions: Light Rain.

KFTY 152231Z 35003KT 3SM -RA SCT039 BKN050 OVC095 28/24 A3001 RMK AO2 RAB00 P0038 T02780244


Wind From 350°
Speed 03 kn.

 
 
jpsmedia.com for Web Design worldairports.se 2018   terms of use